sensor_id;sensor_type;location;lat;lon;timestamp;P1;durP1;ratioP1;P2;durP2;ratioP2
13605;SDS011;6874;52.084;5.090;2022-11-15T00:00:06;33.77;;;32.67;;
13605;SDS011;6874;52.084;5.090;2022-11-15T00:02:32;33.37;;;32.30;;
13605;SDS011;6874;52.084;5.090;2022-11-15T00:04:58;34.80;;;33.70;;
13605;SDS011;6874;52.084;5.090;2022-11-15T00:07:23;37.13;;;35.93;;
13605;SDS011;6874;52.084;5.090;2022-11-15T00:09:49;30.73;;;29.77;;
13605;SDS011;6874;52.084;5.090;2022-11-15T00:12:14;33.40;;;32.33;;
13605;SDS011;6874;52.084;5.090;2022-11-15T00:14:40;32.77;;;31.73;;
13605;SDS011;6874;52.084;5.090;2022-11-15T00:17:05;30.97;;;29.97;;
13605;SDS011;6874;52.084;5.090;2022-11-15T00:19:31;30.43;;;29.47;;
13605;SDS011;6874;52.084;5.090;2022-11-15T00:21:56;33.30;;;32.20;;
13605;SDS011;6874;52.084;5.090;2022-11-15T00:24:22;31.37;;;30.37;;
13605;SDS011;6874;52.084;5.090;2022-11-15T00:26:47;32.53;;;31.50;;
13605;SDS011;6874;52.084;5.090;2022-11-15T00:29:13;30.57;;;29.60;;
13605;SDS011;6874;52.084;5.090;2022-11-15T00:31:38;31.23;;;30.23;;
13605;SDS011;6874;52.084;5.090;2022-11-15T00:34:04;30.23;;;29.27;;
13605;SDS011;6874;52.084;5.090;2022-11-15T00:36:32;31.23;;;30.23;;
13605;SDS011;6874;52.084;5.090;2022-11-15T00:38:59;33.33;;;32.27;;
13605;SDS011;6874;52.084;5.090;2022-11-15T00:41:24;32.13;;;31.10;;
13605;SDS011;6874;52.084;5.090;2022-11-15T00:43:50;30.37;;;29.40;;
13605;SDS011;6874;52.084;5.090;2022-11-15T00:46:17;30.97;;;29.97;;
13605;SDS011;6874;52.084;5.090;2022-11-15T00:48:42;30.57;;;29.57;;
13605;SDS011;6874;52.084;5.090;2022-11-15T00:51:08;29.50;;;28.57;;
13605;SDS011;6874;52.084;5.090;2022-11-15T00:53:33;30.10;;;29.13;;
13605;SDS011;6874;52.084;5.090;2022-11-15T00:55:59;29.33;;;28.40;;
13605;SDS011;6874;52.084;5.090;2022-11-15T00:58:24;31.17;;;30.20;;
13605;SDS011;6874;52.084;5.090;2022-11-15T01:00:50;32.00;;;30.97;;
13605;SDS011;6874;52.084;5.090;2022-11-15T01:03:15;31.33;;;30.33;;
13605;SDS011;6874;52.084;5.090;2022-11-15T01:05:41;30.53;;;29.53;;
13605;SDS011;6874;52.084;5.090;2022-11-15T01:08:10;31.07;;;30.07;;
13605;SDS011;6874;52.084;5.090;2022-11-15T01:10:38;31.20;;;30.20;;
13605;SDS011;6874;52.084;5.090;2022-11-15T01:13:04;31.73;;;30.70;;
13605;SDS011;6874;52.084;5.090;2022-11-15T01:15:29;33.03;;;31.97;;
13605;SDS011;6874;52.084;5.090;2022-11-15T01:17:55;32.83;;;31.77;;
13605;SDS011;6874;52.084;5.090;2022-11-15T01:20:20;33.17;;;32.10;;
13605;SDS011;6874;52.084;5.090;2022-11-15T01:22:46;30.77;;;29.77;;
13605;SDS011;6874;52.084;5.090;2022-11-15T01:25:11;37.00;;;35.80;;
13605;SDS011;6874;52.084;5.090;2022-11-15T01:27:37;34.00;;;32.90;;
13605;SDS011;6874;52.084;5.090;2022-11-15T01:30:02;33.73;;;32.63;;
13605;SDS011;6874;52.084;5.090;2022-11-15T01:32:29;36.70;;;35.50;;
13605;SDS011;6874;52.084;5.090;2022-11-15T01:34:55;35.83;;;34.67;;
13605;SDS011;6874;52.084;5.090;2022-11-15T01:37:20;34.20;;;33.10;;
13605;SDS011;6874;52.084;5.090;2022-11-15T01:39:46;37.57;;;36.37;;
13605;SDS011;6874;52.084;5.090;2022-11-15T01:42:12;38.97;;;37.70;;
13605;SDS011;6874;52.084;5.090;2022-11-15T01:44:40;36.77;;;35.57;;
13605;SDS011;6874;52.084;5.090;2022-11-15T01:47:29;38.20;;;36.97;;
13605;SDS011;6874;52.084;5.090;2022-11-15T01:49:55;39.03;;;37.80;;
13605;SDS011;6874;52.084;5.090;2022-11-15T01:52:22;38.17;;;36.93;;
13605;SDS011;6874;52.084;5.090;2022-11-15T01:54:53;38.87;;;37.63;;
13605;SDS011;6874;52.084;5.090;2022-11-15T01:57:24;40.73;;;39.40;;
13605;SDS011;6874;52.084;5.090;2022-11-15T01:59:49;40.40;;;39.10;;
13605;SDS011;6874;52.084;5.090;2022-11-15T02:02:15;43.60;;;42.20;;
13605;SDS011;6874;52.084;5.090;2022-11-15T02:04:47;41.23;;;39.90;;
13605;SDS011;6874;52.084;5.090;2022-11-15T02:07:15;40.93;;;39.60;;
13605;SDS011;6874;52.084;5.090;2022-11-15T02:09:42;42.13;;;40.77;;
13605;SDS011;6874;52.084;5.090;2022-11-15T02:12:09;41.23;;;39.90;;
13605;SDS011;6874;52.084;5.090;2022-11-15T02:14:38;44.90;;;43.43;;
13605;SDS011;6874;52.084;5.090;2022-11-15T02:19:47;43.67;;;42.27;;
13605;SDS011;6874;52.084;5.090;2022-11-15T02:22:51;41.33;;;39.97;;
13605;SDS011;6874;52.084;5.090;2022-11-15T02:30:48;46.47;;;44.97;;
13605;SDS011;6874;52.084;5.090;2022-11-15T02:33:54;47.50;;;45.93;;
13605;SDS011;6874;52.084;5.090;2022-11-15T02:39:34;50.77;;;49.13;;
13605;SDS011;6874;52.084;5.090;2022-11-15T02:42:24;43.30;;;41.90;;
13605;SDS011;6874;52.084;5.090;2022-11-15T02:45:27;34.00;;;32.90;;
13605;SDS011;6874;52.084;5.090;2022-11-15T02:47:57;40.47;;;39.17;;
13605;SDS011;6874;52.084;5.090;2022-11-15T02:50:27;41.97;;;40.57;;
13605;SDS011;6874;52.084;5.090;2022-11-15T02:52:55;43.40;;;42.00;;
13605;SDS011;6874;52.084;5.090;2022-11-15T02:55:28;45.47;;;43.97;;
13605;SDS011;6874;52.084;5.090;2022-11-15T03:00:55;33.70;;;32.60;;
13605;SDS011;6874;52.084;5.090;2022-11-15T03:11:35;23.60;;;22.83;;
13605;SDS011;6874;52.084;5.090;2022-11-15T03:14:27;27.57;;;26.67;;
13605;SDS011;6874;52.084;5.090;2022-11-15T03:19:48;22.90;;;22.17;;
13605;SDS011;6874;52.084;5.090;2022-11-15T03:22:17;27.33;;;26.43;;
13605;SDS011;6874;52.084;5.090;2022-11-15T03:24:46;27.07;;;26.17;;
13605;SDS011;6874;52.084;5.090;2022-11-15T03:27:15;26.17;;;25.30;;
13605;SDS011;6874;52.084;5.090;2022-11-15T03:29:46;26.00;;;25.20;;
13605;SDS011;6874;52.084;5.090;2022-11-15T03:32:20;26.30;;;25.47;;
13605;SDS011;6874;52.084;5.090;2022-11-15T03:35:33;24.87;;;24.07;;
13605;SDS011;6874;52.084;5.090;2022-11-15T03:40:16;24.90;;;24.10;;
13605;SDS011;6874;52.084;5.090;2022-11-15T03:42:48;24.93;;;24.13;;
13605;SDS011;6874;52.084;5.090;2022-11-15T03:45:28;25.17;;;24.37;;
13605;SDS011;6874;52.084;5.090;2022-11-15T03:50:32;28.00;;;27.10;;
13605;SDS011;6874;52.084;5.090;2022-11-15T03:52:59;27.40;;;26.53;;
13605;SDS011;6874;52.084;5.090;2022-11-15T03:55:25;28.50;;;27.60;;
13605;SDS011;6874;52.084;5.090;2022-11-15T03:57:51;33.40;;;32.30;;
13605;SDS011;6874;52.084;5.090;2022-11-15T04:00:22;28.80;;;27.90;;
13605;SDS011;6874;52.084;5.090;2022-11-15T04:02:48;30.27;;;29.30;;
13605;SDS011;6874;52.084;5.090;2022-11-15T04:05:13;32.87;;;31.83;;
13605;SDS011;6874;52.084;5.090;2022-11-15T04:07:39;33.47;;;32.37;;
13605;SDS011;6874;52.084;5.090;2022-11-15T04:10:05;35.17;;;34.07;;
13605;SDS011;6874;52.084;5.090;2022-11-15T04:12:35;35.60;;;34.47;;
13605;SDS011;6874;52.084;5.090;2022-11-15T04:15:06;34.87;;;33.77;;
13605;SDS011;6874;52.084;5.090;2022-11-15T04:20:07;33.63;;;32.53;;
13605;SDS011;6874;52.084;5.090;2022-11-15T04:22:54;31.77;;;30.77;;
13605;SDS011;6874;52.084;5.090;2022-11-15T04:25:40;30.47;;;29.47;;
13605;SDS011;6874;52.084;5.090;2022-11-15T04:28:07;40.40;;;39.10;;
13605;SDS011;6874;52.084;5.090;2022-11-15T04:30:32;34.70;;;33.60;;
13605;SDS011;6874;52.084;5.090;2022-11-15T04:32:58;38.53;;;37.33;;
13605;SDS011;6874;52.084;5.090;2022-11-15T04:35:24;37.83;;;36.63;;
13605;SDS011;6874;52.084;5.090;2022-11-15T04:37:49;36.80;;;35.63;;
13605;SDS011;6874;52.084;5.090;2022-11-15T04:40:15;37.87;;;36.63;;
13605;SDS011;6874;52.084;5.090;2022-11-15T04:42:41;38.00;;;36.77;;
13605;SDS011;6874;52.084;5.090;2022-11-15T04:45:10;37.70;;;36.50;;
13605;SDS011;6874;52.084;5.090;2022-11-15T04:47:36;38.30;;;37.07;;
13605;SDS011;6874;52.084;5.090;2022-11-15T04:50:01;35.83;;;34.70;;
13605;SDS011;6874;52.084;5.090;2022-11-15T04:52:27;37.30;;;36.13;;
13605;SDS011;6874;52.084;5.090;2022-11-15T04:54:53;32.10;;;31.10;;
13605;SDS011;6874;52.084;5.090;2022-11-15T04:57:18;34.07;;;32.97;;
13605;SDS011;6874;52.084;5.090;2022-11-15T04:59:44;35.00;;;33.87;;
13605;SDS011;6874;52.084;5.090;2022-11-15T05:02:09;32.20;;;31.20;;
13605;SDS011;6874;52.084;5.090;2022-11-15T05:04:35;35.97;;;34.83;;
13605;SDS011;6874;52.084;5.090;2022-11-15T05:07:00;40.20;;;38.90;;
13605;SDS011;6874;52.084;5.090;2022-11-15T05:09:27;42.40;;;41.03;;
13605;SDS011;6874;52.084;5.090;2022-11-15T05:11:52;48.13;;;46.60;;
13605;SDS011;6874;52.084;5.090;2022-11-15T05:14:18;46.77;;;45.23;;
13605;SDS011;6874;52.084;5.090;2022-11-15T05:16:43;50.43;;;48.83;;
13605;SDS011;6874;52.084;5.090;2022-11-15T05:19:09;46.83;;;45.33;;
13605;SDS011;6874;52.084;5.090;2022-11-15T05:21:34;49.50;;;47.90;;
13605;SDS011;6874;52.084;5.090;2022-11-15T05:24:01;48.20;;;46.63;;
13605;SDS011;6874;52.084;5.090;2022-11-15T05:26:27;46.80;;;45.30;;
13605;SDS011;6874;52.084;5.090;2022-11-15T05:28:53;48.07;;;46.50;;
13605;SDS011;6874;52.084;5.090;2022-11-15T05:31:20;42.10;;;40.73;;
13605;SDS011;6874;52.084;5.090;2022-11-15T05:33:46;42.77;;;41.37;;
13605;SDS011;6874;52.084;5.090;2022-11-15T05:36:27;43.57;;;42.17;;
13605;SDS011;6874;52.084;5.090;2022-11-15T05:38:58;35.53;;;34.43;;
13605;SDS011;6874;52.084;5.090;2022-11-15T05:41:30;36.20;;;35.00;;
13605;SDS011;6874;52.084;5.090;2022-11-15T05:44:02;35.73;;;34.60;;
13605;SDS011;6874;52.084;5.090;2022-11-15T05:46:32;36.80;;;35.60;;
13605;SDS011;6874;52.084;5.090;2022-11-15T05:48:59;38.63;;;37.40;;
13605;SDS011;6874;52.084;5.090;2022-11-15T05:51:25;37.80;;;36.60;;
13605;SDS011;6874;52.084;5.090;2022-11-15T05:53:54;36.27;;;35.07;;
13605;SDS011;6874;52.084;5.090;2022-11-15T05:56:21;36.40;;;35.20;;
13605;SDS011;6874;52.084;5.090;2022-11-15T05:58:47;34.40;;;33.30;;
13605;SDS011;6874;52.084;5.090;2022-11-15T06:01:13;33.67;;;32.57;;
13605;SDS011;6874;52.084;5.090;2022-11-15T06:03:39;35.87;;;34.73;;
13605;SDS011;6874;52.084;5.090;2022-11-15T06:06:04;35.10;;;33.97;;
13605;SDS011;6874;52.084;5.090;2022-11-15T06:08:30;37.60;;;36.40;;
13605;SDS011;6874;52.084;5.090;2022-11-15T06:10:55;36.77;;;35.57;;
13605;SDS011;6874;52.084;5.090;2022-11-15T06:13:21;37.47;;;36.27;;
13605;SDS011;6874;52.084;5.090;2022-11-15T06:15:46;36.57;;;35.40;;
13605;SDS011;6874;52.084;5.090;2022-11-15T06:18:12;38.07;;;36.83;;
13605;SDS011;6874;52.084;5.090;2022-11-15T06:20:38;39.37;;;38.10;;
13605;SDS011;6874;52.084;5.090;2022-11-15T06:23:03;39.30;;;38.03;;
13605;SDS011;6874;52.084;5.090;2022-11-15T06:25:30;40.07;;;38.80;;
13605;SDS011;6874;52.084;5.090;2022-11-15T06:27:58;38.27;;;37.03;;
13605;SDS011;6874;52.084;5.090;2022-11-15T06:30:24;41.20;;;39.87;;
13605;SDS011;6874;52.084;5.090;2022-11-15T06:32:51;41.87;;;40.53;;
13605;SDS011;6874;52.084;5.090;2022-11-15T06:35:23;44.30;;;42.87;;
13605;SDS011;6874;52.084;5.090;2022-11-15T06:37:48;43.70;;;42.27;;
13605;SDS011;6874;52.084;5.090;2022-11-15T06:40:14;42.93;;;41.57;;
13605;SDS011;6874;52.084;5.090;2022-11-15T06:42:40;44.00;;;42.57;;
13605;SDS011;6874;52.084;5.090;2022-11-15T06:45:05;41.90;;;40.57;;
13605;SDS011;6874;52.084;5.090;2022-11-15T06:47:31;44.63;;;43.20;;
13605;SDS011;6874;52.084;5.090;2022-11-15T06:49:57;43.73;;;42.30;;
13605;SDS011;6874;52.084;5.090;2022-11-15T06:52:22;43.07;;;41.67;;
13605;SDS011;6874;52.084;5.090;2022-11-15T06:54:48;42.93;;;41.53;;
13605;SDS011;6874;52.084;5.090;2022-11-15T06:57:14;45.87;;;44.37;;
13605;SDS011;6874;52.084;5.090;2022-11-15T06:59:39;46.07;;;44.57;;
13605;SDS011;6874;52.084;5.090;2022-11-15T07:02:05;46.73;;;45.20;;
13605;SDS011;6874;52.084;5.090;2022-11-15T07:04:30;46.67;;;45.13;;
13605;SDS011;6874;52.084;5.090;2022-11-15T07:06:56;49.70;;;48.10;;
13605;SDS011;6874;52.084;5.090;2022-11-15T07:09:21;48.90;;;47.33;;
13605;SDS011;6874;52.084;5.090;2022-11-15T07:11:47;49.40;;;47.80;;
13605;SDS011;6874;52.084;5.090;2022-11-15T07:14:12;44.67;;;43.20;;
13605;SDS011;6874;52.084;5.090;2022-11-15T07:16:38;46.40;;;44.90;;
13605;SDS011;6874;52.084;5.090;2022-11-15T07:19:04;45.67;;;44.20;;
13605;SDS011;6874;52.084;5.090;2022-11-15T07:21:29;44.10;;;42.67;;
13605;SDS011;6874;52.084;5.090;2022-11-15T07:23:55;41.67;;;40.33;;
13605;SDS011;6874;52.084;5.090;2022-11-15T07:26:21;43.00;;;41.63;;
13605;SDS011;6874;52.084;5.090;2022-11-15T07:28:46;43.97;;;42.53;;
13605;SDS011;6874;52.084;5.090;2022-11-15T07:31:12;40.33;;;39.03;;
13605;SDS011;6874;52.084;5.090;2022-11-15T07:33:37;43.40;;;42.00;;
13605;SDS011;6874;52.084;5.090;2022-11-15T07:36:03;41.30;;;39.97;;
13605;SDS011;6874;52.084;5.090;2022-11-15T07:38:31;40.33;;;39.03;;
13605;SDS011;6874;52.084;5.090;2022-11-15T07:40:58;43.93;;;42.53;;
13605;SDS011;6874;52.084;5.090;2022-11-15T07:43:24;40.67;;;39.37;;
13605;SDS011;6874;52.084;5.090;2022-11-15T07:45:52;41.40;;;40.07;;
13605;SDS011;6874;52.084;5.090;2022-11-15T07:48:18;40.73;;;39.43;;
13605;SDS011;6874;52.084;5.090;2022-11-15T07:50:43;39.07;;;37.80;;
13605;SDS011;6874;52.084;5.090;2022-11-15T07:53:09;43.47;;;42.07;;
13605;SDS011;6874;52.084;5.090;2022-11-15T07:55:35;42.90;;;41.50;;
13605;SDS011;6874;52.084;5.090;2022-11-15T07:58:02;39.97;;;38.67;;
13605;SDS011;6874;52.084;5.090;2022-11-15T08:00:29;44.77;;;43.30;;
13605;SDS011;6874;52.084;5.090;2022-11-15T08:03:08;50.57;;;48.77;;
13605;SDS011;6874;52.084;5.090;2022-11-15T08:05:35;45.97;;;44.47;;
13605;SDS011;6874;52.084;5.090;2022-11-15T08:08:02;46.13;;;44.63;;
13605;SDS011;6874;52.084;5.090;2022-11-15T08:10:28;47.43;;;45.87;;
13605;SDS011;6874;52.084;5.090;2022-11-15T08:12:58;44.57;;;43.13;;
13605;SDS011;6874;52.084;5.090;2022-11-15T08:15:24;51.33;;;49.67;;
13605;SDS011;6874;52.084;5.090;2022-11-15T08:17:57;47.63;;;46.10;;
13605;SDS011;6874;52.084;5.090;2022-11-15T08:20:25;51.57;;;49.90;;
13605;SDS011;6874;52.084;5.090;2022-11-15T08:22:53;50.97;;;49.33;;
13605;SDS011;6874;52.084;5.090;2022-11-15T08:25:19;54.90;;;53.13;;
13605;SDS011;6874;52.084;5.090;2022-11-15T08:27:44;59.93;;;58.00;;
13605;SDS011;6874;52.084;5.090;2022-11-15T08:30:10;53.40;;;51.67;;
13605;SDS011;6874;52.084;5.090;2022-11-15T08:32:36;62.00;;;60.00;;
13605;SDS011;6874;52.084;5.090;2022-11-15T08:35:01;63.83;;;61.73;;
13605;SDS011;6874;52.084;5.090;2022-11-15T08:37:27;62.47;;;60.43;;
13605;SDS011;6874;52.084;5.090;2022-11-15T08:39:53;67.57;;;65.37;;
13605;SDS011;6874;52.084;5.090;2022-11-15T08:42:18;63.30;;;61.23;;
13605;SDS011;6874;52.084;5.090;2022-11-15T08:44:44;69.80;;;67.53;;
13605;SDS011;6874;52.084;5.090;2022-11-15T08:47:12;78.07;;;75.47;;
13605;SDS011;6874;52.084;5.090;2022-11-15T08:49:41;80.73;;;78.03;;
13605;SDS011;6874;52.084;5.090;2022-11-15T08:52:06;88.93;;;86.00;;
13605;SDS011;6874;52.084;5.090;2022-11-15T08:54:32;90.33;;;87.33;;
13605;SDS011;6874;52.084;5.090;2022-11-15T08:56:57;94.50;;;91.37;;
13605;SDS011;6874;52.084;5.090;2022-11-15T08:59:23;94.83;;;91.67;;
13605;SDS011;6874;52.084;5.090;2022-11-15T09:01:49;98.73;;;95.43;;
13605;SDS011;6874;52.084;5.090;2022-11-15T09:04:14;99.80;;;96.47;;
13605;SDS011;6874;52.084;5.090;2022-11-15T09:06:40;109.33;;;105.63;;
13605;SDS011;6874;52.084;5.090;2022-11-15T09:09:05;107.33;;;103.73;;
13605;SDS011;6874;52.084;5.090;2022-11-15T09:11:31;111.47;;;107.67;;
13605;SDS011;6874;52.084;5.090;2022-11-15T09:13:56;112.63;;;108.77;;
13605;SDS011;6874;52.084;5.090;2022-11-15T09:16:22;122.23;;;118.07;;
13605;SDS011;6874;52.084;5.090;2022-11-15T09:18:48;125.70;;;121.50;;
13605;SDS011;6874;52.084;5.090;2022-11-15T09:21:13;125.13;;;120.93;;
13605;SDS011;6874;52.084;5.090;2022-11-15T09:23:39;136.77;;;132.17;;
13605;SDS011;6874;52.084;5.090;2022-11-15T09:26:05;131.20;;;126.77;;
13605;SDS011;6874;52.084;5.090;2022-11-15T09:28:31;124.50;;;120.33;;
13605;SDS011;6874;52.084;5.090;2022-11-15T09:30:58;124.43;;;120.23;;
13605;SDS011;6874;52.084;5.090;2022-11-15T09:33:28;118.97;;;114.97;;
13605;SDS011;6874;52.084;5.090;2022-11-15T09:35:54;111.47;;;107.73;;
13605;SDS011;6874;52.084;5.090;2022-11-15T09:38:24;118.60;;;114.67;;
13605;SDS011;6874;52.084;5.090;2022-11-15T09:40:51;110.07;;;106.37;;
13605;SDS011;6874;52.084;5.090;2022-11-15T09:43:27;109.20;;;105.60;;
13605;SDS011;6874;52.084;5.090;2022-11-15T09:46:01;115.00;;;111.17;;
13605;SDS011;6874;52.084;5.090;2022-11-15T09:51:04;125.27;;;121.07;;
13605;SDS011;6874;52.084;5.090;2022-11-15T09:56:18;142.23;;;137.47;;
13605;SDS011;6874;52.084;5.090;2022-11-15T09:58:55;135.77;;;131.20;;
13605;SDS011;6874;52.084;5.090;2022-11-15T10:03:59;144.53;;;139.63;;
13605;SDS011;6874;52.084;5.090;2022-11-15T10:06:25;151.83;;;146.67;;
13605;SDS011;6874;52.084;5.090;2022-11-15T10:11:30;158.30;;;152.90;;
13605;SDS011;6874;52.084;5.090;2022-11-15T10:13:59;151.17;;;146.07;;
13605;SDS011;6874;52.084;5.090;2022-11-15T10:24:37;160.00;;;154.53;;
13605;SDS011;6874;52.084;5.090;2022-11-15T10:27:11;166.63;;;160.97;;
13605;SDS011;6874;52.084;5.090;2022-11-15T10:29:45;173.53;;;167.53;;
13605;SDS011;6874;52.084;5.090;2022-11-15T10:32:13;177.87;;;171.87;;
13605;SDS011;6874;52.084;5.090;2022-11-15T10:34:40;176.37;;;170.27;;
13605;SDS011;6874;52.084;5.090;2022-11-15T10:37:06;185.27;;;178.97;;
13605;SDS011;6874;52.084;5.090;2022-11-15T10:39:31;180.83;;;174.73;;
13605;SDS011;6874;52.084;5.090;2022-11-15T10:42:28;186.90;;;180.50;;
13605;SDS011;6874;52.084;5.090;2022-11-15T10:44:54;178.50;;;172.43;;
13605;SDS011;6874;52.084;5.090;2022-11-15T10:47:24;188.03;;;181.63;;
13605;SDS011;6874;52.084;5.090;2022-11-15T10:50:37;180.63;;;174.53;;
13605;SDS011;6874;52.084;5.090;2022-11-15T10:52:52;185.43;;;179.13;;
13605;SDS011;6874;52.084;5.090;2022-11-15T10:55:26;187.10;;;180.87;;
13605;SDS011;6874;52.084;5.090;2022-11-15T10:57:55;178.90;;;172.83;;
13605;SDS011;6874;52.084;5.090;2022-11-15T11:00:31;172.13;;;166.23;;
13605;SDS011;6874;52.084;5.090;2022-11-15T11:03:03;171.97;;;166.17;;
13605;SDS011;6874;52.084;5.090;2022-11-15T11:08:00;175.00;;;169.10;;
13605;SDS011;6874;52.084;5.090;2022-11-15T11:10:30;169.30;;;163.53;;
13605;SDS011;6874;52.084;5.090;2022-11-15T11:15:52;171.67;;;165.87;;
13605;SDS011;6874;52.084;5.090;2022-11-15T11:27:18;184.30;;;178.00;;
13605;SDS011;6874;52.084;5.090;2022-11-15T11:30:20;190.47;;;183.97;;
13605;SDS011;6874;52.084;5.090;2022-11-15T11:42:04;183.90;;;177.57;;
13605;SDS011;6874;52.084;5.090;2022-11-15T11:44:50;198.00;;;191.23;;
13605;SDS011;6874;52.084;5.090;2022-11-15T11:47:39;194.07;;;187.33;;
13605;SDS011;6874;52.084;5.090;2022-11-15T11:55:23;198.13;;;191.20;;
13605;SDS011;6874;52.084;5.090;2022-11-15T11:58:02;197.57;;;190.70;;
13605;SDS011;6874;52.084;5.090;2022-11-15T12:00:29;202.47;;;195.50;;
13605;SDS011;6874;52.084;5.090;2022-11-15T12:05:41;198.13;;;191.27;;
13605;SDS011;6874;52.084;5.090;2022-11-15T12:11:13;201.30;;;194.33;;
13605;SDS011;6874;52.084;5.090;2022-11-15T12:13:48;205.33;;;198.17;;
13605;SDS011;6874;52.084;5.090;2022-11-15T12:16:22;203.80;;;196.63;;
13605;SDS011;6874;52.084;5.090;2022-11-15T12:18:52;214.33;;;206.87;;
13605;SDS011;6874;52.084;5.090;2022-11-15T12:24:15;211.10;;;203.70;;
13605;SDS011;6874;52.084;5.090;2022-11-15T12:26:52;210.00;;;202.70;;
13605;SDS011;6874;52.084;5.090;2022-11-15T12:29:44;212.77;;;205.30;;
13605;SDS011;6874;52.084;5.090;2022-11-15T12:32:27;201.23;;;194.23;;
13605;SDS011;6874;52.084;5.090;2022-11-15T12:34:59;207.33;;;200.03;;
13605;SDS011;6874;52.084;5.090;2022-11-15T12:40:04;211.77;;;204.27;;
13605;SDS011;6874;52.084;5.090;2022-11-15T12:45:39;210.37;;;202.87;;
13605;SDS011;6874;52.084;5.090;2022-11-15T12:48:51;205.10;;;197.83;;
13605;SDS011;6874;52.084;5.090;2022-11-15T12:51:02;190.53;;;183.73;;
13605;SDS011;6874;52.084;5.090;2022-11-15T12:53:29;207.83;;;200.47;;
13605;SDS011;6874;52.084;5.090;2022-11-15T13:06:59;190.43;;;183.50;;
13605;SDS011;6874;52.084;5.090;2022-11-15T13:12:02;178.27;;;171.80;;
13605;SDS011;6874;52.084;5.090;2022-11-15T13:22:40;186.97;;;180.10;;
13605;SDS011;6874;52.084;5.090;2022-11-15T13:25:23;177.97;;;171.50;;
13605;SDS011;6874;52.084;5.090;2022-11-15T13:30:40;190.97;;;183.97;;
13605;SDS011;6874;52.084;5.090;2022-11-15T13:35:46;189.80;;;182.93;;
13605;SDS011;6874;52.084;5.090;2022-11-15T13:41:28;176.10;;;169.70;;
13605;SDS011;6874;52.084;5.090;2022-11-15T13:43:57;171.53;;;165.33;;
13605;SDS011;6874;52.084;5.090;2022-11-15T13:49:00;160.73;;;154.93;;
13605;SDS011;6874;52.084;5.090;2022-11-15T13:56:44;139.73;;;134.73;;
13605;SDS011;6874;52.084;5.090;2022-11-15T13:59:34;139.67;;;134.73;;
13605;SDS011;6874;52.084;5.090;2022-11-15T14:02:11;125.20;;;120.80;;
13605;SDS011;6874;52.084;5.090;2022-11-15T14:05:00;132.50;;;127.83;;
13605;SDS011;6874;52.084;5.090;2022-11-15T14:07:41;134.67;;;129.93;;
13605;SDS011;6874;52.084;5.090;2022-11-15T14:10:40;130.93;;;126.23;;
13605;SDS011;6874;52.084;5.090;2022-11-15T14:13:25;131.67;;;127.07;;
13605;SDS011;6874;52.084;5.090;2022-11-15T14:15:52;123.30;;;119.00;;
13605;SDS011;6874;52.084;5.090;2022-11-15T14:21:10;128.93;;;124.37;;
13605;SDS011;6874;52.084;5.090;2022-11-15T14:23:35;117.87;;;113.77;;
13605;SDS011;6874;52.084;5.090;2022-11-15T14:26:01;114.43;;;110.43;;
13605;SDS011;6874;52.084;5.090;2022-11-15T14:30:53;104.20;;;100.60;;
13605;SDS011;6874;52.084;5.090;2022-11-15T14:33:27;95.13;;;91.87;;
13605;SDS011;6874;52.084;5.090;2022-11-15T14:36:05;97.23;;;93.83;;
13605;SDS011;6874;52.084;5.090;2022-11-15T14:38:39;88.43;;;85.43;;
13605;SDS011;6874;52.084;5.090;2022-11-15T14:41:05;87.67;;;84.67;;
13605;SDS011;6874;52.084;5.090;2022-11-15T14:43:35;81.77;;;78.97;;
13605;SDS011;6874;52.084;5.090;2022-11-15T14:46:00;75.43;;;72.87;;
13605;SDS011;6874;52.084;5.090;2022-11-15T14:48:26;75.93;;;73.37;;
13605;SDS011;6874;52.084;5.090;2022-11-15T14:50:51;66.63;;;64.40;;
13605;SDS011;6874;52.084;5.090;2022-11-15T14:53:17;62.83;;;60.73;;
13605;SDS011;6874;52.084;5.090;2022-11-15T14:55:44;62.30;;;60.20;;
13605;SDS011;6874;52.084;5.090;2022-11-15T14:58:10;61.60;;;59.53;;
13605;SDS011;6874;52.084;5.090;2022-11-15T15:00:36;58.37;;;56.40;;
13605;SDS011;6874;52.084;5.090;2022-11-15T15:03:03;58.20;;;56.23;;
13605;SDS011;6874;52.084;5.090;2022-11-15T15:05:31;58.93;;;56.93;;
13605;SDS011;6874;52.084;5.090;2022-11-15T15:07:58;54.40;;;52.57;;
13605;SDS011;6874;52.084;5.090;2022-11-15T15:10:25;52.37;;;50.60;;
13605;SDS011;6874;52.084;5.090;2022-11-15T15:12:54;51.53;;;49.80;;
13605;SDS011;6874;52.084;5.090;2022-11-15T15:15:21;51.37;;;49.63;;
13605;SDS011;6874;52.084;5.090;2022-11-15T15:17:50;49.97;;;48.30;;
13605;SDS011;6874;52.084;5.090;2022-11-15T15:20:16;47.27;;;45.70;;
13605;SDS011;6874;52.084;5.090;2022-11-15T15:22:42;46.07;;;44.50;;
13605;SDS011;6874;52.084;5.090;2022-11-15T15:25:40;42.70;;;41.30;;
13605;SDS011;6874;52.084;5.090;2022-11-15T15:28:00;46.70;;;45.13;;
13605;SDS011;6874;52.084;5.090;2022-11-15T15:30:27;44.47;;;43.00;;
13605;SDS011;6874;52.084;5.090;2022-11-15T15:32:54;42.43;;;41.07;;
13605;SDS011;6874;52.084;5.090;2022-11-15T15:35:20;41.60;;;40.23;;
13605;SDS011;6874;52.084;5.090;2022-11-15T15:37:46;42.63;;;41.23;;
13605;SDS011;6874;52.084;5.090;2022-11-15T15:40:16;34.67;;;33.53;;
13605;SDS011;6874;52.084;5.090;2022-11-15T15:42:45;37.00;;;35.80;;
13605;SDS011;6874;52.084;5.090;2022-11-15T15:45:11;35.17;;;34.03;;
13605;SDS011;6874;52.084;5.090;2022-11-15T15:47:36;32.80;;;31.73;;
13605;SDS011;6874;52.084;5.090;2022-11-15T15:50:03;32.23;;;31.23;;
13605;SDS011;6874;52.084;5.090;2022-11-15T15:52:39;33.77;;;32.67;;
13605;SDS011;6874;52.084;5.090;2022-11-15T15:55:05;30.93;;;29.93;;
13605;SDS011;6874;52.084;5.090;2022-11-15T15:57:30;30.60;;;29.60;;
13605;SDS011;6874;52.084;5.090;2022-11-15T15:59:56;31.03;;;30.03;;
13605;SDS011;6874;52.084;5.090;2022-11-15T16:02:22;31.47;;;30.47;;
13605;SDS011;6874;52.084;5.090;2022-11-15T16:04:47;29.20;;;28.27;;
13605;SDS011;6874;52.084;5.090;2022-11-15T16:07:17;29.10;;;28.20;;
13605;SDS011;6874;52.084;5.090;2022-11-15T16:09:48;29.60;;;28.63;;
13605;SDS011;6874;52.084;5.090;2022-11-15T16:12:29;34.73;;;33.60;;
13605;SDS011;6874;52.084;5.090;2022-11-15T16:14:57;30.97;;;29.97;;
13605;SDS011;6874;52.084;5.090;2022-11-15T16:17:24;29.10;;;28.20;;
13605;SDS011;6874;52.084;5.090;2022-11-15T16:19:51;27.70;;;26.80;;
13605;SDS011;6874;52.084;5.090;2022-11-15T16:22:17;29.27;;;28.37;;
13605;SDS011;6874;52.084;5.090;2022-11-15T16:24:42;29.03;;;28.13;;
13605;SDS011;6874;52.084;5.090;2022-11-15T16:27:15;29.30;;;28.40;;
13605;SDS011;6874;52.084;5.090;2022-11-15T16:29:42;28.93;;;28.03;;
13605;SDS011;6874;52.084;5.090;2022-11-15T16:32:08;29.67;;;28.73;;
13605;SDS011;6874;52.084;5.090;2022-11-15T16:34:34;28.47;;;27.57;;
13605;SDS011;6874;52.084;5.090;2022-11-15T16:36:59;28.40;;;27.50;;
13605;SDS011;6874;52.084;5.090;2022-11-15T16:39:25;28.43;;;27.53;;
13605;SDS011;6874;52.084;5.090;2022-11-15T16:41:52;29.23;;;28.33;;
13605;SDS011;6874;52.084;5.090;2022-11-15T16:44:18;30.00;;;29.00;;
13605;SDS011;6874;52.084;5.090;2022-11-15T16:46:43;29.23;;;28.33;;
13605;SDS011;6874;52.084;5.090;2022-11-15T16:49:15;28.47;;;27.57;;
13605;SDS011;6874;52.084;5.090;2022-11-15T16:51:41;27.43;;;26.53;;
13605;SDS011;6874;52.084;5.090;2022-11-15T16:54:09;27.50;;;26.60;;
13605;SDS011;6874;52.084;5.090;2022-11-15T16:56:35;28.10;;;27.20;;